Aérodrome :
LOGIN :

S'inscrire | Disclaimer

   EN    FR    IT 

 










Légende :    VFR   VFR Marginal   IFR   IFR Intensif   IFR Très Intensif
Visi : 
Plafond : 
>= 8 km
>= 3000ft
5 à 8 km
1000 à 3000 ft
1500m à 5 km
500 à 1000 ft
800 à 1500m
200 à 500 ft
< 800m
< 200 ft
Symboles :   Orages  Brouillard  Fortes neiges  Fortes précipitations  Vent > 20 kt
SIGMETs :   Divers  Orages  Givrage  Turbulence  Onde Orograph.  Cendres Volcan.







- Altitude de l'aérodrome : 39 ft
- Code IATA : TRS


LIPQ - Friuli Venezia Giulia Apt. Trieste

DERNIER METAR :
  • 190320Z AUTO 36003KT 9999 SCT150/// 20/16 Q1012

METARs EXPIRÉS :
  • 190250Z AUTO 03003KT 9999 FEW110/// 20/16 Q1012
  • 190220Z AUTO 08004KT 9999 FEW095/// SCT120/// 21/14 Q1012
  • 190150Z AUTO 09004KT 9999 BKN096/// BKN130/// 22/14 Q1012
  • 190120Z AUTO 09004KT 9999 FEW097/// SCT120/// BKN240/// 21/15 Q1012
  • 190050Z AUTO VRB02KT 9999 FEW100/// 19/17 Q1013

TAF TAF LIPQ
Valide du 19 à 00h jusqu'au 20 à 00h UTC


182300Z 1900/1924 VRB05KT 9999 FEW030
BECMG 1908/1910 08014KT
TEMPO 1910/1918 TSRA
BECMG 1917/1919 VRB05KT
Pas de NOTAMs connus pour ce terrain.
1 SIGMET publié pour la FIR Milano (LIMM) :
 
Orages noyés dans la masse
LIMM SIGMET 3 VALID 190255/190455 LIMM- LIMM MILANO FIR EMBD TS FCST WI N4650 E01027 - N4508 E01026 - N4639 E01230 - N4703 E01211 - N4650 E01027 TOP FL320 MOV ENE NC=



MET'MAP, la Météo Aéronautique d'un coup d'oeil ! - Copyright ORBIFLY Décembre 2007 - Disclaimer

ORBIFLY MET'MAP TEAM :

Programmation & Développement : Alexandra Zaïnal
Conception & Développement : Baudouin d'Aumeries
Co-Programmation & Développement : Marc-Olivier Méhu
Soutien technique & logistique : Manuel Goepfert

Contact : metmap@orbifly.com




SOURCES & CREDITS :

   NOAA